Time;durP1;ratioP1;P1;durP2;ratioP2;P2;SDS_P1;SDS_P2;PMS_P1;PMS_P2;Temp;Humidity;BMP_temperature;BMP_pressure;BME280_temperature;BME280_humidity;BME280_pressure;Samples;Min_cycle;Max_cycle;Signal;HPM_P1;HPM_P2
2022/04/17 00:00:32;;;;;;;3.40;3.10;;;4.30;53.90;;;2.66;63.60;99370.16;5043217;28;20449;-79
2022/04/17 00:02:59;;;;;;;3.47;3.27;;;4.20;53.90;;;2.75;63.16;99376.53;5045840;28;20502;-79
2022/04/17 00:05:28;;;;;;;3.60;3.30;;;4.20;54.00;;;2.71;63.25;99359.09;5064225;28;20456;-78
2022/04/17 00:07:55;;;;;;;4.13;2.90;;;4.20;54.10;;;2.64;63.36;99357.91;5048221;28;20463;-77
2022/04/17 00:10:22;;;;;;;2.77;2.57;;;4.10;54.10;;;2.32;63.56;99292.13;5050631;28;20443;-78
2022/04/17 00:12:49;;;;;;;3.83;3.10;;;4.20;54.10;;;2.74;63.38;99361.47;5045610;28;20456;-78
2022/04/17 00:15:16;;;;;;;4.53;3.10;;;4.20;54.20;;;2.50;63.56;99330.59;5039114;28;20451;-79
2022/04/17 00:17:43;;;;;;;3.47;3.00;;;4.10;54.20;;;2.62;63.82;99355.38;5040660;28;21025;-77
2022/04/17 00:20:12;;;;;;;5.07;3.00;;;4.00;54.40;;;2.65;63.87;99356.94;5045401;28;20455;-79
2022/04/17 00:22:40;;;;;;;3.20;2.90;;;4.00;54.60;;;2.55;64.04;99354.19;5048201;28;20494;-78
2022/04/17 00:25:09;;;;;;;4.10;3.50;;;4.00;55.10;;;2.51;64.26;99348.31;5038437;28;20897;-79
2022/04/17 00:27:38;;;;;;;3.17;2.87;;;3.90;55.00;;;2.44;64.73;99347.13;5041716;28;20851;-79
2022/04/17 00:30:08;;;;;;;5.10;3.63;;;3.80;55.00;;;2.45;64.64;99343.47;5049908;28;20551;-79
2022/04/17 00:32:36;;;;;;;2.97;2.70;;;3.90;55.30;;;1.75;65.45;99266.63;5063645;28;20443;-79
2022/04/17 00:35:07;;;;;;;3.30;3.07;;;3.70;55.40;;;2.24;65.13;99333.66;5065743;28;20959;-77
2022/04/17 00:37:34;;;;;;;3.40;3.10;;;3.70;55.60;;;2.31;65.46;99346.47;5058085;28;20470;-77
2022/04/17 00:40:02;;;;;;;3.70;3.00;;;3.70;55.80;;;2.20;65.61;99336.72;5049923;28;20444;-77
2022/04/17 00:42:29;;;;;;;3.40;3.10;;;3.70;56.10;;;1.83;65.87;99282.00;5048148;28;20549;-77
2022/04/17 00:44:56;;;;;;;3.20;3.00;;;3.60;56.20;;;2.15;66.05;99336.25;5050735;28;20889;-78
2022/04/17 00:47:23;;;;;;;5.10;3.50;;;3.60;56.40;;;1.61;66.02;99259.81;5055517;28;20470;-77
2022/04/17 00:49:50;;;;;;;4.10;3.60;;;3.60;56.60;;;2.11;66.29;99333.00;5058235;28;20645;-76
2022/04/17 00:52:20;;;;;;;4.17;3.17;;;3.60;56.60;;;2.11;66.23;99343.66;5057857;28;20454;-77
2022/04/17 00:54:50;;;;;;;4.33;3.90;;;3.60;56.80;;;2.08;66.75;99341.25;5045763;28;20455;-79
2022/04/17 00:57:19;;;;;;;5.03;3.50;;;3.50;57.00;;;1.83;66.60;99305.97;5042919;28;20495;-79
2022/04/17 00:59:49;;;;;;;3.73;3.43;;;3.50;57.10;;;2.04;66.87;99345.13;5051094;28;20468;-79
2022/04/17 01:02:17;;;;;;;6.07;3.63;;;3.50;57.30;;;1.98;66.77;99331.34;5050463;28;20980;-78
2022/04/17 01:04:46;;;;;;;4.20;3.83;;;3.50;57.50;;;1.54;67.12;99262.13;5045645;28;20498;-79
2022/04/17 01:07:14;;;;;;;3.90;3.60;;;3.40;57.80;;;1.94;67.83;99324.59;5049607;28;20886;-77
2022/04/17 01:09:42;;;;;;;5.57;3.50;;;3.40;58.20;;;1.89;67.76;99312.63;5055117;28;20454;-77
2022/04/17 01:12:10;;;;;;;6.10;4.37;;;3.40;58.50;;;1.75;68.22;99303.13;5053379;28;20454;-78
2022/04/17 01:14:41;;;;;;;5.90;4.10;;;3.30;58.70;;;1.48;68.45;99275.09;5049399;28;20446;-78
2022/04/17 01:17:10;;;;;;;4.53;3.97;;;3.30;59.20;;;1.72;68.31;99314.88;5043549;28;20462;-77
2022/04/17 01:19:39;;;;;;;4.57;3.80;;;3.20;59.20;;;1.80;68.13;99332.88;5043798;28;20474;-77
2022/04/17 01:22:08;;;;;;;5.07;4.03;;;3.30;59.50;;;1.75;68.79;99319.09;5045806;28;20465;-79
2022/04/17 01:27:21;;;;;;;4.83;4.37;;;3.20;59.70;;;1.74;68.61;99310.25;5051639;28;20982;-78
2022/04/17 01:29:50;;;;;;;4.23;3.93;;;3.20;59.80;;;1.66;68.86;99316.22;5051913;28;20456;-78
2022/04/17 01:32:18;;;;;;;4.20;3.80;;;3.20;59.90;;;1.59;68.54;99296.34;5046462;28;20843;-77
2022/04/17 01:34:45;;;;;;;5.07;4.57;;;3.20;60.00;;;1.65;68.71;99298.53;5051540;28;20503;-79
2022/04/17 01:37:14;;;;;;;4.80;4.07;;;3.20;60.10;;;1.63;68.80;99296.97;5048003;28;20576;-79
2022/04/17 01:39:42;;;;;;;4.47;4.07;;;3.10;60.20;;;1.58;68.82;99308.00;5044851;28;20468;-80
2022/04/17 01:42:09;;;;;;;5.20;4.20;;;3.10;60.50;;;1.59;69.00;99307.03;5052251;28;20446;-79
2022/04/17 01:44:36;;;;;;;4.20;3.70;;;3.10;60.50;;;1.40;68.84;99273.06;5044780;28;20454;-79
2022/04/17 01:47:04;;;;;;;4.43;4.03;;;3.10;60.80;;;1.61;69.20;99288.25;5045435;28;20565;-77
2022/04/17 01:49:31;;;;;;;4.23;3.80;;;3.10;61.00;;;1.63;68.49;99289.81;5050466;28;20499;-78
2022/04/17 01:52:00;;;;;;;9.47;3.93;;;3.10;60.80;;;1.60;68.91;99287.44;5059700;28;20830;-77
2022/04/17 01:54:31;;;;;;;4.23;3.70;;;3.10;60.90;;;1.65;68.89;99287.03;5051146;28;20466;-78
2022/04/17 01:56:59;;;;;;;6.00;4.27;;;3.10;61.10;;;1.58;68.79;99278.69;5047438;28;20505;-77
2022/04/17 01:59:26;;;;;;;4.40;4.10;;;3.10;61.10;;;1.58;69.05;99286.69;5051926;28;20549;-78
2022/04/17 02:01:54;;;;;;;4.60;4.00;;;3.10;61.20;;;1.56;69.00;99277.97;5041608;28;20454;-76
2022/04/17 02:04:21;;;;;;;5.70;4.83;;;3.10;61.20;;;1.58;68.85;99270.69;5042016;28;20456;-76
2022/04/17 02:06:49;;;;;;;4.30;3.90;;;3.00;61.40;;;1.53;69.30;99267.56;5040508;28;20489;-78
2022/04/17 02:09:17;;;;;;;4.40;3.70;;;3.00;61.60;;;1.54;69.25;99269.25;5048398;28;20450;-80
2022/04/17 02:11:46;;;;;;;6.57;4.20;;;3.00;61.60;;;1.50;69.49;99259.84;5049155;28;20875;-78
2022/04/17 02:14:14;;;;;;;4.83;4.33;;;3.00;61.70;;;1.48;68.95;99256.47;5053994;28;20454;-78
2022/04/17 02:16:41;;;;;;;5.13;4.07;;;3.00;61.70;;;1.38;69.20;99232.41;5042392;28;20965;-77
2022/04/17 02:19:09;;;;;;;6.23;4.00;;;3.00;61.70;;;1.40;69.54;99235.78;5051479;28;20458;-80
2022/04/17 02:21:36;;;;;;;4.30;3.90;;;3.00;61.90;;;1.34;69.32;99225.63;5041305;28;21139;-76
2022/04/17 02:24:04;;;;;;;4.40;4.00;;;2.90;61.90;;;1.41;69.59;99240.13;5048590;28;21037;-78
2022/04/17 02:26:32;;;;;;;5.00;4.20;;;2.90;62.10;;;1.35;69.67;99233.50;5048322;28;20456;-78
2022/04/17 02:29:02;;;;;;;5.10;3.83;;;2.90;62.20;;;1.38;69.77;99249.22;5055820;28;20455;-78
2022/04/17 02:31:29;;;;;;;5.33;3.90;;;2.90;62.20;;;1.37;69.63;99244.03;5045234;28;20446;-77
2022/04/17 02:33:57;;;;;;;4.00;3.70;;;2.90;62.30;;;1.40;69.94;99247.28;5065444;28;20486;-76
2022/04/17 02:36:24;;;;;;;4.33;3.90;;;2.90;62.60;;;1.35;69.58;99241.50;5046712;28;20501;-77
2022/04/17 02:38:53;;;;;;;4.70;4.17;;;2.80;62.60;;;1.32;70.04;99231.09;5056216;28;21005;-77
2022/04/17 02:41:20;;;;;;;5.93;4.70;;;2.80;62.70;;;1.29;69.73;99230.50;5039475;28;20971;-76
2022/04/17 02:43:47;;;;;;;7.30;4.10;;;2.80;62.90;;;1.32;69.71;99249.75;5046070;28;21709;-78
2022/04/17 02:47:42;;;;;;;4.50;4.10;;;2.80;62.90;;;1.19;70.12;99244.53;5042358;28;20461;-76
2022/04/17 02:49:02;;;;;;;4.83;4.23;;;2.80;63.40;;;1.16;70.58;99249.28;5046695;28;20474;-78
2022/04/17 02:51:29;;;;;;;4.70;4.20;;;2.70;63.20;;;0.82;70.79;99208.44;5046131;28;20564;-77
2022/04/17 02:53:55;;;;;;;4.07;3.67;;;2.70;63.60;;;1.07;70.96;99240.25;5049080;28;21007;-77
2022/04/17 02:56:22;;;;;;;4.73;3.90;;;2.60;63.90;;;1.00;71.47;99250.53;5046445;28;20511;-77
2022/04/17 02:58:52;;;;;;;4.93;4.43;;;2.50;64.30;;;1.03;71.20;99238.78;5048246;28;20565;-77
2022/04/17 03:06:49;;;;;;;4.00;3.60;;;2.50;64.80;;;0.98;71.53;99250.66;5023724;28;20452;-77
2022/04/17 03:09:18;;;;;;;4.57;4.13;;;2.50;65.00;;;0.95;71.43;99242.06;5054506;28;20495;-76
2022/04/17 03:11:45;;;;;;;6.17;4.00;;;2.40;65.00;;;0.97;71.25;99233.00;5043151;28;20443;-78
2022/04/17 03:14:13;;;;;;;4.10;3.67;;;2.50;65.00;;;0.94;71.47;99241.22;5048334;28;20529;-79
2022/04/17 03:16:41;;;;;;;4.03;3.63;;;2.50;65.10;;;0.90;71.84;99241.59;5047878;28;20878;-79
2022/04/17 03:19:08;;;;;;;4.33;3.93;;;2.40;65.10;;;0.85;71.48;99226.00;5051882;28;20495;-78
2022/04/17 03:21:35;;;;;;;5.10;4.30;;;2.40;65.20;;;0.89;71.69;99242.56;5049617;28;20453;-77
2022/04/17 03:24:02;;;;;;;4.40;3.63;;;2.40;65.40;;;0.85;71.79;99231.31;5042208;28;20440;-77
2022/04/17 03:26:29;;;;;;;5.63;3.93;;;2.40;65.50;;;0.81;71.69;99214.75;5061868;28;20880;-77
2022/04/17 03:28:58;;;;;;;4.90;4.40;;;2.40;65.80;;;0.86;71.69;99233.00;5049677;28;20591;-77
2022/04/17 03:31:25;;;;;;;4.50;4.00;;;2.40;65.60;;;0.88;71.42;99227.56;5051186;28;20473;-75
2022/04/17 03:33:54;;;;;;;4.20;3.80;;;2.40;65.70;;;0.77;71.92;99218.63;5038951;28;20494;-80
2022/04/17 03:36:21;;;;;;;4.63;4.23;;;2.40;66.00;;;0.68;72.24;99208.72;5042630;28;20586;-78
2022/04/17 03:38:48;;;;;;;4.70;4.20;;;2.30;66.10;;;0.67;72.64;99217.66;5048406;28;20466;-77
2022/04/17 03:41:15;;;;;;;4.63;4.20;;;2.20;66.50;;;0.72;72.71;99218.16;5047381;28;20835;-76
2022/04/17 03:43:42;;;;;;;8.23;4.80;;;2.20;66.70;;;0.72;71.96;99210.19;5043309;28;20446;-78
2022/04/17 03:46:09;;;;;;;4.97;4.40;;;2.20;66.80;;;0.66;72.60;99219.50;5061465;28;20823;-76
2022/04/17 03:48:36;;;;;;;5.30;3.90;;;2.20;66.90;;;0.62;72.62;99207.41;5047284;28;20453;-76
2022/04/17 03:51:05;;;;;;;4.17;3.83;;;2.20;66.90;;;0.72;72.12;99209.31;5048984;28;20446;-76
2022/04/17 03:53:32;;;;;;;4.97;4.47;;;2.20;67.00;;;0.60;72.18;99205.84;5058774;28;20490;-76
2022/04/17 03:55:58;;;;;;;4.53;4.03;;;2.20;66.90;;;0.64;72.87;99212.59;5046955;28;20467;-77
2022/04/17 03:58:26;;;;;;;4.77;4.30;;;2.10;67.20;;;0.54;73.06;99213.34;5052493;28;20994;-77
2022/04/17 04:00:53;;;;;;;4.87;4.47;;;2.10;67.60;;;-0.06;73.75;99163.06;5044661;28;20545;-77
2022/04/17 04:03:20;;;;;;;5.10;4.00;;;1.90;68.20;;;0.20;74.57;99215.97;5037065;28;20539;-77
2022/04/17 04:05:47;;;;;;;6.77;4.70;;;1.70;69.10;;;0.09;75.33;99222.13;5039239;28;20454;-76
2022/04/17 04:08:15;;;;;;;5.03;4.53;;;1.60;69.70;;;0.09;75.51;99208.00;5046992;28;20591;-79
2022/04/17 04:10:42;;;;;;;5.47;4.50;;;1.50;70.70;;;0.06;74.47;99195.78;5050069;28;20475;-79
2022/04/17 04:13:09;;;;;;;5.40;4.90;;;1.60;70.60;;;0.05;75.00;99211.84;5050398;28;20490;-78
2022/04/17 04:15:36;;;;;;;5.07;4.57;;;1.50;70.90;;;-0.17;75.74;99192.25;5042861;28;20475;-79
2022/04/17 04:18:04;;;;;;;4.80;4.40;;;1.50;71.10;;;0.03;75.75;99227.06;5047298;28;20475;-78
2022/04/17 04:20:31;;;;;;;4.60;4.20;;;1.40;71.80;;;0.31;74.35;99224.94;5046212;28;20870;-78
2022/04/17 04:22:58;;;;;;;4.50;3.93;;;1.70;71.00;;;0.38;74.01;99228.78;5045753;28;20533;-78
2022/04/17 04:25:26;;;;;;;4.93;4.43;;;1.80;70.50;;;0.20;74.93;99209.81;5058620;28;20456;-78
2022/04/17 04:30:37;;;;;;;4.80;4.40;;;1.70;70.90;;;0.13;75.35;99228.06;5040921;28;20471;-79
2022/04/17 04:33:05;;;;;;;4.83;4.40;;;1.60;71.20;;;0.10;75.92;99233.63;5049456;28;20536;-77
2022/04/17 04:35:33;;;;;;;5.10;4.03;;;1.50;71.70;;;0.10;75.65;99233.63;5048981;28;20450;-77
2022/04/17 04:38:01;;;;;;;6.50;4.73;;;1.60;72.00;;;0.05;75.10;99185.28;5048405;28;20585;-86
2022/04/17 04:40:30;;;;;;;4.73;4.33;;;1.70;72.10;;;0.38;74.33;99191.56;5065157;28;20460;-83
2022/04/17 04:42:59;;;;;;;5.60;4.50;;;2.00;71.50;;;0.91;72.41;99220.19;5052180;28;20459;-87
2022/04/17 04:48:12;;;;;;;6.93;4.67;;;2.70;68.70;;;1.59;69.82;99219.09;5054179;28;20454;-74
2022/04/17 04:50:40;;;;;;;3.90;3.60;;;3.10;67.30;;;2.10;68.10;99200.66;5057251;28;20875;-72
2022/04/17 04:53:07;;;;;;;5.50;4.97;;;3.60;66.30;;;2.73;65.43;99215.66;5046634;28;21009;-72
2022/04/17 04:55:35;;;;;;;5.90;4.13;;;4.20;63.90;;;3.08;64.42;99202.81;5047825;28;21199;-73
2022/04/17 04:58:02;;;;;;;4.10;3.70;;;4.70;62.40;;;3.76;62.12;99209.19;5047381;28;20754;-73
2022/04/17 05:00:30;;;;;;;3.70;3.40;;;5.40;60.80;;;3.97;61.34;99217.03;5044582;28;20535;-73
2022/04/17 05:02:57;;;;;;;4.40;4.00;;;5.80;59.10;;;4.34;60.31;99207.38;5047147;28;20461;-73
2022/04/17 05:05:24;;;;;;;5.37;3.40;;;6.20;58.00;;;3.62;60.58;99138.28;5069756;28;20494;-74
2022/04/17 05:07:51;;;;;;;5.07;3.53;;;6.00;57.60;;;4.39;59.24;99205.09;5049753;28;20552;-72
2022/04/17 05:10:18;;;;;;;4.57;3.83;;;6.40;57.20;;;4.15;59.84;99214.44;5054989;28;20922;-73
2022/04/17 05:12:46;;;;;;;3.70;3.40;;;6.20;56.30;;;4.18;60.09;99219.53;5049986;28;20436;-73
2022/04/17 05:15:15;;;;;;;3.70;3.40;;;6.30;56.50;;;4.34;59.63;99212.72;5038788;28;20537;-76
2022/04/17 05:17:42;;;;;;;5.17;4.20;;;6.30;56.40;;;4.79;58.36;99200.41;5039185;28;20459;-73
2022/04/17 05:20:10;;;;;;;3.60;3.30;;;6.50;56.30;;;5.43;56.26;99191.53;5056368;28;20565;-74
2022/04/17 05:22:38;;;;;;;4.10;3.70;;;6.90;55.30;;;5.12;56.13;99199.94;5043315;28;20483;-75
2022/04/17 05:25:06;;;;;;;4.20;3.80;;;6.90;54.90;;;4.48;58.21;99172.09;5044395;28;20476;-74
2022/04/17 05:27:33;;;;;;;4.53;3.27;;;6.60;54.60;;;4.35;58.67;99215.22;5045297;28;20543;-76
2022/04/17 05:30:01;;;;;;;3.90;3.60;;;6.40;54.70;;;5.05;56.95;99195.16;5044191;28;20853;-82
2022/04/17 05:32:29;;;;;;;4.47;4.07;;;6.80;54.80;;;5.43;56.55;99196.91;5046405;28;20521;-84
2022/04/17 05:34:56;;;;;;;4.23;3.87;;;7.20;54.20;;;5.27;55.51;99168.94;5039661;28;20564;-84
2022/04/17 05:37:23;;;;;;;4.00;3.70;;;7.50;53.10;;;5.84;54.47;99189.22;5040628;28;20452;-85
2022/04/17 05:39:50;;;;;;;4.57;4.17;;;7.80;52.60;;;5.98;54.46;99195.84;5049053;28;20501;-84
2022/04/17 05:42:17;;;;;;;4.00;3.60;;;8.00;52.20;;;5.98;54.09;99193.16;5044953;28;20459;-85
2022/04/17 05:44:44;;;;;;;3.57;3.27;;;8.10;51.60;;;4.10;58.49;99198.84;5044465;28;20459;-83
2022/04/17 05:47:13;;;;;;;4.53;3.37;;;6.80;51.80;;;3.32;60.97;99206.91;5046444;28;20959;-83
2022/04/17 05:49:40;;;;;;;4.57;3.67;;;5.70;53.90;;;2.76;63.35;99207.38;5046013;28;20453;-81
2022/04/17 05:52:08;;;;;;;4.53;4.10;;;4.80;55.40;;;2.25;65.09;99170.00;5041050;28;20706;-81
2022/04/17 05:54:35;;;;;;;5.77;3.63;;;4.30;57.10;;;2.53;65.21;99201.41;5044662;28;20552;-84
2022/04/17 05:57:02;;;;;;;4.60;4.03;;;4.10;58.00;;;2.59;65.35;99200.88;5063895;28;20440;-79
2022/04/17 05:59:29;;;;;;;8.00;4.07;;;4.10;58.50;;;2.72;65.01;99195.31;5065283;28;20460;-78
2022/04/17 06:01:56;;;;;;;4.30;3.80;;;4.30;58.90;;;2.81;64.09;99183.81;5059921;28;20470;-77
2022/04/17 06:04:25;;;;;;;3.93;3.53;;;4.40;58.50;;;2.76;64.13;99210.06;5049260;28;20811;-87
2022/04/17 06:06:52;;;;;;;4.10;3.70;;;4.40;58.30;;;2.84;64.00;99206.69;5045274;28;20452;-86
2022/04/17 06:09:19;;;;;;;3.67;3.27;;;4.40;58.30;;;2.97;63.65;99193.13;5062210;28;20457;-82
2022/04/17 06:11:46;;;;;;;3.90;3.57;;;4.40;58.40;;;2.98;63.53;99200.97;5045296;28;20545;-86
2022/04/17 06:14:13;;;;;;;4.10;3.67;;;4.50;58.20;;;3.20;62.86;99199.06;5044063;28;20509;-77
2022/04/17 06:16:41;;;;;;;4.77;4.23;;;4.60;58.10;;;3.45;61.99;99204.81;5052511;28;20683;-88
2022/04/17 06:19:09;;;;;;;6.33;4.07;;;4.80;57.80;;;3.44;61.90;99196.97;5046666;28;20492;-85
2022/04/17 06:21:37;;;;;;;4.07;3.67;;;5.00;57.60;;;3.78;61.62;99202.69;5040266;28;20530;-84
2022/04/17 06:24:05;;;;;;;3.80;3.40;;;5.10;57.60;;;3.77;61.54;99182.28;5042665;28;20957;-82
2022/04/17 06:26:33;;;;;;;4.67;3.97;;;5.20;57.50;;;4.01;59.88;99204.19;5039887;28;20514;-85
2022/04/17 06:29:03;;;;;;;9.23;3.63;;;5.40;56.90;;;4.15;60.03;99195.72;5043708;28;20449;-85
2022/04/17 06:31:30;;;;;;;3.90;3.30;;;5.50;57.00;;;4.40;59.69;99201.41;5046376;28;20538;-78
2022/04/17 06:33:57;;;;;;;5.70;3.70;;;5.70;56.60;;;4.44;59.22;99212.69;5052570;28;20537;-73
2022/04/17 06:36:24;;;;;;;3.10;2.90;;;5.80;56.20;;;4.60;58.17;99196.84;5050227;28;20466;-84
2022/04/17 06:38:52;;;;;;;4.73;3.40;;;5.90;56.00;;;4.73;58.55;99201.84;5051700;28;20519;-83
2022/04/17 06:41:19;;;;;;;3.90;3.50;;;6.10;56.10;;;4.43;57.43;99141.41;5044032;28;20455;-80
2022/04/17 06:43:46;;;;;;;3.37;3.00;;;6.20;55.30;;;4.85;57.25;99190.94;5042947;28;20457;-86
2022/04/17 06:46:13;;;;;;;5.17;3.70;;;6.20;55.10;;;4.98;57.67;99199.47;5061400;28;20466;-86
2022/04/17 06:48:40;;;;;;;3.67;3.30;;;6.30;55.10;;;5.09;57.58;99196.56;5057482;28;20527;-77
2022/04/17 06:51:07;;;;;;;3.10;2.80;;;6.40;55.00;;;5.29;56.87;99199.13;5056033;28;21020;-80
2022/04/17 06:53:34;;;;;;;3.80;3.10;;;6.60;54.80;;;5.32;55.91;99195.28;5047654;28;21381;-80
2022/04/17 06:56:02;;;;;;;4.07;3.43;;;6.70;54.50;;;5.29;56.38;99193.75;5040869;28;20528;-81
2022/04/17 06:58:29;;;;;;;3.93;3.27;;;6.70;54.40;;;5.41;56.06;99180.13;5048426;28;20554;-80
2022/04/17 07:00:56;;;;;;;4.10;3.70;;;6.80;54.60;;;5.64;55.64;99186.69;5040352;28;20518;-82
2022/04/17 07:03:23;;;;;;;5.07;3.13;;;6.90;54.40;;;5.86;54.98;99195.25;5049726;28;20494;-81
2022/04/17 07:05:50;;;;;;;4.57;3.30;;;7.10;54.10;;;5.82;55.16;99186.66;5047426;28;20871;-79
2022/04/17 07:08:17;;;;;;;4.00;3.40;;;7.20;53.80;;;5.81;54.17;99194.84;5059292;28;20445;-77
2022/04/17 07:10:46;;;;;;;3.50;3.07;;;7.20;53.00;;;5.84;54.70;99185.66;5047868;28;20459;-81
2022/04/17 07:13:15;;;;;;;5.77;3.80;;;7.20;53.00;;;6.03;54.02;99188.19;5042942;28;20508;-77
2022/04/17 07:15:43;;;;;;;4.30;3.40;;;7.30;53.10;;;6.08;54.16;99183.19;5038546;28;20512;-81
2022/04/17 07:18:10;;;;;;;3.70;3.40;;;7.40;52.70;;;6.08;53.36;99179.66;5044237;28;20845;-83
2022/04/17 07:20:37;;;;;;;4.73;3.67;;;7.40;52.30;;;6.13;53.32;99189.94;5046322;28;20468;-86
2022/04/17 07:23:05;;;;;;;3.50;2.93;;;7.50;52.40;;;6.06;54.44;99133.38;5048025;28;20461;-85
2022/04/17 07:25:34;;;;;;;4.07;3.43;;;7.60;53.00;;;6.73;51.96;99180.16;5052080;28;20975;-76
2022/04/17 07:28:01;;;;;;;4.20;3.47;;;7.90;52.40;;;6.29;52.03;99125.59;5079432;28;20509;-75
2022/04/17 07:30:35;;;;;;;9.00;4.07;;;8.00;52.00;;;6.58;52.26;99175.41;5055944;28;20468;-76
2022/04/17 07:33:03;;;;;;;3.10;2.80;;;8.00;51.50;;;6.50;52.35;99173.53;5045713;28;20453;-81
2022/04/17 07:35:31;;;;;;;7.20;3.53;;;7.90;51.50;;;6.52;52.73;99166.16;5044796;28;20468;-79
2022/04/17 07:38:00;;;;;;;4.00;3.60;;;7.90;51.90;;;6.70;52.92;99159.84;5042794;28;20960;-81
2022/04/17 07:40:30;;;;;;;3.93;3.50;;;7.90;52.00;;;6.87;52.42;99152.69;5031538;28;20856;-82
2022/04/17 07:42:59;;;;;;;4.67;4.17;;;8.10;52.10;;;7.06;51.74;99151.56;5028700;28;20571;-77
2022/04/17 07:45:29;;;;;;;3.90;3.30;;;8.30;52.00;;;7.45;51.31;99149.22;5030708;28;20486;-79
2022/04/17 07:47:56;;;;;;;3.50;3.20;;;8.50;51.90;;;7.40;50.17;99140.84;5035543;28;20470;-82
2022/04/17 07:50:27;;;;;;;4.33;3.13;;;8.70;50.90;;;7.43;50.82;99133.28;5044082;28;20451;-83
2022/04/17 07:52:54;;;;;;;3.90;3.17;;;8.70;50.80;;;7.63;50.42;99131.06;5041980;28;20769;-77
2022/04/17 07:55:23;;;;;;;5.20;3.47;;;8.80;51.10;;;7.33;49.86;99136.13;5036675;28;20763;-79
2022/04/17 07:58:01;;;;;;;4.60;3.10;;;8.70;50.00;;;7.32;49.47;99126.38;5043699;28;20458;-82
2022/04/17 08:00:32;;;;;;;4.30;3.33;;;8.60;50.00;;;7.51;49.09;99132.44;5035352;28;21011;-82
2022/04/17 08:03:20;;;;;;;4.30;2.83;;;8.70;49.70;;;7.64;49.65;99126.53;5046026;28;20454;-78
2022/04/17 08:05:48;;;;;;;5.57;3.40;;;8.80;49.90;;;7.62;48.49;99134.78;5037446;28;20530;-79
2022/04/17 08:08:15;;;;;;;4.10;3.50;;;8.90;49.30;;;7.61;49.50;99127.72;5034669;28;20540;-74
2022/04/17 08:10:42;;;;;;;3.73;3.20;;;8.90;49.50;;;7.77;48.93;99126.03;5049799;28;20477;-73
2022/04/17 08:13:09;;;;;;;3.27;2.77;;;9.00;49.40;;;8.01;47.33;99121.63;5034220;28;20808;-72
2022/04/17 08:15:38;;;;;;;3.83;3.47;;;9.20;48.70;;;8.08;47.13;99115.38;5030410;28;21335;-82
2022/04/17 08:18:05;;;;;;;3.17;2.87;;;9.30;48.60;;;8.12;46.20;99107.81;5036522;28;20462;-78
2022/04/17 08:20:32;;;;;;;3.47;3.10;;;9.40;48.10;;;8.16;46.58;99109.13;5044592;28;20898;-74
2022/04/17 08:23:00;;;;;;;3.93;3.10;;;9.40;47.90;;;7.88;45.86;99055.72;5043222;28;20552;-77
2022/04/17 08:25:27;;;;;;;4.23;3.20;;;9.50;47.50;;;8.26;46.19;99102.69;5045805;28;20438;-84
2022/04/17 08:27:56;;;;;;;2.87;2.67;;;9.50;47.20;;;8.20;46.00;99109.63;5044700;28;20456;-75
2022/04/17 08:30:25;;;;;;;3.10;2.80;;;9.50;47.20;;;8.11;46.15;99067.59;5048722;28;20452;-82
2022/04/17 08:32:54;;;;;;;4.60;2.73;;;9.50;47.40;;;8.23;47.06;99104.72;5041748;28;20836;-80
2022/04/17 08:35:22;;;;;;;3.57;3.07;;;9.50;47.50;;;8.34;46.10;99091.91;5043305;28;20535;-78
2022/04/17 08:37:50;;;;;;;4.43;2.97;;;9.60;47.30;;;8.27;45.30;99062.13;5042625;28;20975;-75
2022/04/17 08:40:18;;;;;;;3.67;2.40;;;9.80;46.90;;;8.40;44.00;99087.66;5039031;28;20473;-75
2022/04/17 08:42:45;;;;;;;4.67;2.57;;;9.70;45.80;;;8.49;44.31;99103.63;5040834;28;20483;-75
2022/04/17 08:45:14;;;;;;;4.70;2.67;;;9.70;45.70;;;8.72;43.46;99097.47;5045572;28;20630;-77
2022/04/17 08:47:43;;;;;;;2.57;2.30;;;9.90;45.40;;;8.76;43.11;99095.25;5043047;28;20535;-75
2022/04/17 08:50:14;;;;;;;2.80;2.60;;;9.90;44.90;;;8.84;42.02;99094.38;5064397;28;20966;-76
2022/04/17 08:52:46;;;;;;;3.67;2.47;;;10.00;43.40;;;8.79;41.61;99098.44;5053140;28;20574;-74
2022/04/17 08:55:14;;;;;;;2.70;2.50;;;10.10;43.10;;;8.96;42.50;99092.13;5049980;28;20452;-76
2022/04/17 08:57:41;;;;;;;2.90;2.60;;;10.10;43.60;;;8.97;42.51;99075.75;5043919;28;20833;-74
2022/04/17 09:00:11;;;;;;;4.63;2.50;;;10.20;43.60;;;8.97;42.10;99085.72;5046537;28;20986;-77
2022/04/17 09:02:39;;;;;;;2.47;2.27;;;10.20;43.50;;;8.92;42.45;99075.47;5048617;28;20476;-80
2022/04/17 09:05:07;;;;;;;4.03;2.90;;;10.20;43.20;;;8.74;41.35;99052.34;5049595;28;20470;-76
2022/04/17 09:07:46;;;;;;;2.80;2.20;;;10.10;42.70;;;9.02;40.78;99078.78;5049077;28;20460;-77
2022/04/17 09:10:26;;;;;;;2.60;2.10;;;10.20;42.30;;;9.19;40.67;99081.34;5049606;28;20445;-74
2022/04/17 09:12:55;;;;;;;2.57;2.33;;;10.40;42.10;;;9.20;40.62;99077.63;5047131;28;20442;-75
2022/04/17 09:15:24;;;;;;;3.40;2.20;;;10.40;42.00;;;9.41;40.40;99062.59;5048613;28;20480;-76
2022/04/17 09:17:52;;;;;;;3.10;2.60;;;10.60;42.30;;;9.46;39.65;99079.06;5026345;28;20632;-74
2022/04/17 09:20:21;;;;;;;3.40;2.20;;;10.60;41.60;;;9.49;39.95;99076.03;5030733;28;20512;-75
2022/04/17 09:22:52;;;;;;;3.57;2.63;;;10.70;41.80;;;9.33;42.07;99072.47;5046530;28;20483;-76
2022/04/17 09:25:22;;;;;;;3.47;2.57;;;10.60;42.40;;;9.27;41.40;99070.47;5048049;28;20460;-75
2022/04/17 09:28:01;;;;;;;2.80;2.30;;;10.50;42.20;;;9.49;40.39;99059.84;5047529;28;20469;-74
2022/04/17 09:30:30;;;;;;;2.97;1.97;;;10.60;42.40;;;9.66;39.25;99070.47;5044802;28;20449;-75
2022/04/17 09:32:58;;;;;;;3.93;2.40;;;10.80;41.40;;;9.58;39.27;99074.91;5048931;28;20517;-77
2022/04/17 09:35:26;;;;;;;2.63;2.17;;;10.80;41.20;;;9.44;39.69;99059.53;5052845;28;21195;-73
2022/04/17 09:38:00;;;;;;;3.00;2.20;;;10.80;40.90;;;9.54;40.10;99041.25;5047260;28;20549;-72
2022/04/17 09:40:28;;;;;;;2.23;2.07;;;10.70;41.40;;;9.79;39.55;99062.59;5049259;28;20548;-74
2022/04/17 09:43:10;;;;;;;2.80;2.37;;;10.80;41.20;;;9.76;38.75;99052.16;5048986;28;20867;-74
2022/04/17 09:45:59;;;;;;;2.17;1.97;;;11.00;40.80;;;9.95;37.71;99039.97;5047816;28;20448;-78
2022/04/17 09:48:30;;;;;;;2.40;2.13;;;11.10;40.00;;;10.30;37.21;99044.78;5047475;28;21040;-76
2022/04/17 09:50:57;;;;;;;2.70;2.37;;;11.30;39.90;;;10.43;35.62;99039.59;5050373;28;20446;-75
2022/04/17 09:53:34;;;;;;;2.87;2.67;;;11.60;39.30;;;10.74;36.12;99046.59;5064080;28;20956;-76
2022/04/17 09:56:12;;;;;;;2.27;2.07;;;11.80;39.10;;;10.91;36.12;99035.53;5051090;28;20536;-75
2022/04/17 09:58:45;;;;;;;2.83;2.27;;;12.00;39.00;;;11.14;35.06;99029.06;5056323;28;21030;-75
2022/04/17 10:01:16;;;;;;;2.50;2.30;;;12.30;38.80;;;11.21;35.44;99027.28;5049343;28;20491;-75
2022/04/17 10:03:44;;;;;;;2.63;2.00;;;12.30;38.80;;;11.34;33.05;99024.69;5053484;28;20441;-77
2022/04/17 10:06:12;;;;;;;2.43;2.23;;;12.50;37.60;;;11.49;34.10;99037.28;5049162;28;20461;-76
2022/04/17 10:08:44;;;;;;;2.80;2.53;;;12.50;37.60;;;11.03;34.80;98976.34;5050834;28;20539;-74
2022/04/17 10:11:13;;;;;;;2.93;2.03;;;12.50;37.90;;;11.44;33.81;99008.09;5050489;28;20952;-76
2022/04/17 10:13:41;;;;;;;2.60;1.87;;;12.60;37.90;;;11.56;32.59;99026.50;5045086;28;20802;-75
2022/04/17 10:16:10;;;;;;;2.60;2.40;;;12.70;37.20;;;10.98;32.28;99014.78;5048186;28;20786;-75
2022/04/17 10:18:42;;;;;;;2.30;2.00;;;12.40;35.60;;;11.40;31.53;99014.09;5049927;28;20445;-75
2022/04/17 10:21:10;;;;;;;1.83;1.73;;;12.50;35.90;;;11.12;31.31;99007.63;5047843;28;20871;-75
2022/04/17 10:23:42;;;;;;;3.13;2.20;;;12.50;35.20;;;11.14;33.00;99013.69;5048534;28;20452;-74
2022/04/17 10:26:15;;;;;;;2.77;2.50;;;12.40;36.10;;;11.07;34.79;98968.69;5047870;28;21224;-74
2022/04/17 10:28:47;;;;;;;3.07;2.10;;;12.40;37.60;;;11.09;35.88;98990.97;5040648;28;20461;-73
2022/04/17 10:31:17;;;;;;;5.33;2.93;;;12.30;38.30;;;11.20;35.67;98985.03;5047561;28;21082;-76
2022/04/17 10:34:22;;;;;;;10.03;8.87;;;12.40;38.50;;;11.12;36.06;98982.44;5048247;28;20457;-76
2022/04/17 10:37:13;;;;;;;2.63;2.43;;;12.40;38.60;;;11.36;35.90;98983.06;5048835;28;20442;-76
2022/04/17 10:39:48;;;;;;;3.10;2.47;;;12.40;38.80;;;12.13;35.55;98967.69;5047623;28;20788;-78
2022/04/17 10:42:16;;;;;;;8.23;3.43;;;13.00;39.30;;;12.39;35.44;98963.41;5046308;28;20539;-76
2022/04/17 10:44:45;;;;;;;3.00;2.80;;;13.40;39.20;;;12.14;34.18;98976.69;5047039;28;20462;-77
2022/04/17 10:47:20;;;;;;;2.93;2.73;;;13.40;38.40;;;12.18;34.61;98965.22;5045961;28;20537;-76
2022/04/17 10:49:56;;;;;;;4.23;2.83;;;13.30;38.40;;;12.43;33.86;98951.13;5047813;28;20516;-75